Time;durP1;ratioP1;P1;durP2;ratioP2;P2;SDS_P1;SDS_P2;PMS_P1;PMS_P2;Temp;Humidity;BMP_temperature;BMP_pressure;BME280_temperature;BME280_humidity;BME280_pressure;Samples;Min_cycle;Max_cycle;Signal;HPM_P1;HPM_P2
2023/09/25 00:02:04;;;;;;;4.77;3.17;;;;;;;8.36;100.00;101318.53;5003307;28;20226;-67
2023/09/25 00:04:31;;;;;;;4.53;3.00;;;;;;;8.33;100.00;101319.31;5001608;28;20209;-67
2023/09/25 00:06:57;;;;;;;3.87;2.87;;;;;;;8.33;100.00;101323.66;5002651;28;20219;-67
2023/09/25 00:09:24;;;;;;;6.33;2.87;;;;;;;8.32;100.00;101321.84;5003727;28;20293;-66
2023/09/25 00:11:50;;;;;;;4.43;3.10;;;;;;;8.31;100.00;101317.41;5002787;28;20199;-66
2023/09/25 00:14:17;;;;;;;3.40;2.60;;;;;;;8.32;100.00;101317.47;4997912;28;20236;-67
2023/09/25 00:16:43;;;;;;;4.30;2.90;;;;;;;8.45;100.00;101313.59;5005580;28;20229;-67
2023/09/25 00:19:09;;;;;;;3.23;2.87;;;;;;;8.56;100.00;101312.25;5001509;28;20207;-67
2023/09/25 00:21:37;;;;;;;5.40;2.97;;;;;;;8.56;100.00;101309.59;4999088;28;20309;-67
2023/09/25 00:24:03;;;;;;;6.40;3.00;;;;;;;8.50;100.00;101313.78;5000409;28;20235;-67
2023/09/25 00:26:30;;;;;;;5.33;2.90;;;;;;;8.44;100.00;101319.72;4996768;28;20443;-67
2023/09/25 00:28:56;;;;;;;4.37;3.23;;;;;;;8.34;100.00;101321.09;4998695;28;20197;-67
2023/09/25 00:31:23;;;;;;;6.60;3.87;;;;;;;8.25;100.00;101317.19;5001629;28;20215;-67
2023/09/25 00:33:50;;;;;;;2.83;2.53;;;;;;;8.13;100.00;101315.00;5002324;28;20577;-66
2023/09/25 00:36:18;;;;;;;3.33;2.70;;;;;;;8.18;100.00;101308.16;5002377;28;20229;-66
2023/09/25 00:38:44;;;;;;;3.63;2.90;;;;;;;8.11;100.00;101311.41;4998144;28;20227;-67
2023/09/25 00:41:11;;;;;;;4.33;2.80;;;;;;;8.08;100.00;101306.03;4996897;28;20224;-67
2023/09/25 00:43:37;;;;;;;6.37;2.97;;;;;;;7.99;100.00;101310.91;5001997;28;20997;-66
2023/09/25 00:46:04;;;;;;;3.73;2.70;;;;;;;7.96;100.00;101302.88;5007168;28;20239;-67
2023/09/25 00:48:30;;;;;;;4.37;3.00;;;;;;;8.02;100.00;101295.25;5001635;28;20203;-66
2023/09/25 00:51:00;;;;;;;3.90;2.67;;;;;;;8.13;100.00;101297.44;4996086;28;20202;-66
2023/09/25 00:53:29;;;;;;;4.63;3.10;;;;;;;8.25;100.00;101296.97;4995678;28;20209;-67
2023/09/25 00:55:56;;;;;;;4.80;3.17;;;;;;;8.35;100.00;101298.25;4998515;28;20223;-67
2023/09/25 00:58:24;;;;;;;5.23;3.27;;;;;;;8.29;100.00;101305.91;5002735;28;20197;-66
2023/09/25 01:00:52;;;;;;;5.03;2.50;;;;;;;8.23;100.00;101303.94;5000356;28;20207;-67
2023/09/25 01:03:19;;;;;;;5.00;3.20;;;;;;;8.21;100.00;101295.06;4996563;28;20214;-67
2023/09/25 01:05:45;;;;;;;4.00;3.00;;;;;;;8.13;100.00;101304.44;4995257;28;20230;-67
2023/09/25 01:08:12;;;;;;;3.47;2.77;;;;;;;8.18;100.00;101305.53;5003110;28;20200;-66
2023/09/25 01:10:40;;;;;;;5.07;3.07;;;;;;;8.05;100.00;101306.81;4998628;28;20216;-67
2023/09/25 01:13:07;;;;;;;4.83;2.80;;;;;;;7.93;100.00;101306.31;4999049;28;20208;-66
2023/09/25 01:15:33;;;;;;;4.80;3.27;;;;;;;7.86;100.00;101313.09;4997097;28;20230;-67
2023/09/25 01:18:00;;;;;;;4.13;2.73;;;;;;;7.82;100.00;101307.63;5002876;28;20208;-66
2023/09/25 01:20:26;;;;;;;4.20;2.90;;;;;;;7.75;100.00;101303.88;4997533;28;20605;-67
2023/09/25 01:22:53;;;;;;;3.43;2.63;;;;;;;7.67;100.00;101310.59;4999077;28;20331;-66
2023/09/25 01:25:21;;;;;;;5.23;2.73;;;;;;;7.61;100.00;101302.44;4996154;28;20314;-66
2023/09/25 01:27:47;;;;;;;4.63;3.10;;;;;;;7.60;100.00;101308.50;4995158;28;20292;-67
2023/09/25 01:30:16;;;;;;;4.60;2.40;;;;;;;7.55;100.00;101300.44;5000332;28;20208;-67
2023/09/25 01:32:45;;;;;;;3.17;2.60;;;;;;;7.59;100.00;101298.81;4996080;28;20196;-66
2023/09/25 01:35:18;;;;;;;3.97;2.60;;;;;;;7.58;100.00;101289.09;5000754;28;20231;-68
2023/09/25 01:37:46;;;;;;;8.37;3.27;;;;;;;7.64;100.00;101289.38;4996494;28;20206;-67
2023/09/25 01:40:13;;;;;;;4.27;2.80;;;;;;;7.72;100.00;101292.31;4998568;28;20209;-66
2023/09/25 01:42:40;;;;;;;4.97;2.80;;;;;;;7.75;100.00;101285.41;4999036;28;20303;-67
2023/09/25 01:45:08;;;;;;;4.17;2.93;;;;;;;7.72;100.00;101292.31;4997068;28;20251;-66
2023/09/25 01:47:35;;;;;;;4.87;3.10;;;;;;;7.74;100.00;101277.44;4996896;28;20270;-67
2023/09/25 01:50:02;;;;;;;4.47;3.10;;;;;;;7.81;100.00;101280.38;5001287;28;20208;-67
2023/09/25 01:52:30;;;;;;;5.10;3.10;;;;;;;7.80;100.00;101280.31;5001159;28;20204;-67
2023/09/25 01:54:57;;;;;;;4.37;2.90;;;;;;;7.78;100.00;101272.34;4998963;28;20597;-66
2023/09/25 01:57:23;;;;;;;4.53;2.70;;;;;;;7.72;100.00;101273.84;4996956;28;20204;-67
2023/09/25 01:59:50;;;;;;;4.87;2.90;;;;;;;7.65;100.00;101280.63;4993183;28;20680;-66
2023/09/25 02:02:16;;;;;;;3.80;2.63;;;;;;;7.59;100.00;101274.19;5000503;28;20212;-66
2023/09/25 02:04:42;;;;;;;3.77;3.27;;;;;;;7.62;100.00;101280.50;5002784;28;20302;-67
2023/09/25 02:07:11;;;;;;;5.10;3.00;;;;;;;7.60;100.00;101276.88;4997811;28;20296;-66
2023/09/25 02:09:37;;;;;;;4.63;2.93;;;;;;;7.61;100.00;101280.44;4996476;28;20222;-67
2023/09/25 02:12:04;;;;;;;3.97;2.57;;;;;;;7.51;100.00;101282.69;4999423;28;20206;-67
2023/09/25 02:14:31;;;;;;;3.97;2.67;;;;;;;7.58;100.00;101277.66;4997027;28;20202;-66
2023/09/25 02:16:58;;;;;;;3.77;2.50;;;;;;;7.55;100.00;101275.81;5016315;28;20200;-67
2023/09/25 02:19:28;;;;;;;9.57;2.97;;;;;;;7.56;100.00;101272.34;4993984;28;20209;-66
2023/09/25 02:21:54;;;;;;;5.63;2.53;;;;;;;7.48;100.00;101272.03;4994047;28;20643;-67
2023/09/25 02:24:21;;;;;;;4.10;2.90;;;;;;;7.53;100.00;101265.19;4991655;28;20292;-67
2023/09/25 02:26:48;;;;;;;3.67;2.97;;;;;;;7.59;100.00;101269.81;4997186;28;20230;-66
2023/09/25 02:29:14;;;;;;;4.73;3.20;;;;;;;7.59;100.00;101268.91;4994665;28;20200;-68
2023/09/25 02:31:40;;;;;;;7.03;3.30;;;;;;;7.64;100.00;101268.28;4993404;28;20682;-67
2023/09/25 02:34:14;;;;;;;6.47;3.20;;;;;;;7.72;100.00;101260.66;4994510;28;21464;-66
2023/09/25 02:36:41;;;;;;;6.17;2.90;;;;;;;7.77;100.00;101256.47;5000083;28;20843;-68
2023/09/25 02:39:07;;;;;;;3.63;2.73;;;;;;;7.76;100.00;101255.56;4999268;28;20204;-67
2023/09/25 02:41:34;;;;;;;4.33;3.00;;;;;;;7.69;100.00;101250.91;4995306;28;20252;-67
2023/09/25 02:44:00;;;;;;;4.13;2.97;;;;;;;7.62;100.00;101248.88;4997510;28;20215;-66
2023/09/25 02:46:26;;;;;;;5.57;2.80;;;;;;;7.57;100.00;101252.13;4994678;28;20249;-67
2023/09/25 02:48:53;;;;;;;3.47;2.63;;;;;;;7.50;100.00;101248.38;4998888;28;20200;-66
2023/09/25 02:51:19;;;;;;;3.80;3.17;;;;;;;7.46;100.00;101252.63;4998002;28;20676;-67
2023/09/25 02:53:46;;;;;;;4.33;2.97;;;;;;;7.50;100.00;101244.00;4994002;28;20205;-67
2023/09/25 02:56:12;;;;;;;5.73;3.13;;;;;;;7.51;100.00;101240.53;4992226;28;20714;-66
2023/09/25 02:58:38;;;;;;;3.47;2.53;;;;;;;7.47;100.00;101242.97;4999654;28;20219;-67
2023/09/25 03:01:05;;;;;;;3.83;2.80;;;;;;;7.38;100.00;101255.81;4998258;28;20223;-66
2023/09/25 03:03:32;;;;;;;4.30;2.73;;;;;;;7.33;100.00;101249.44;4995174;28;20753;-67
2023/09/25 03:05:59;;;;;;;3.53;2.57;;;;;;;7.26;100.00;101250.94;4990537;28;20217;-66
2023/09/25 03:08:25;;;;;;;6.20;2.60;;;;;;;7.21;100.00;101247.22;5001037;28;20218;-66
2023/09/25 03:10:52;;;;;;;3.50;2.67;;;;;;;7.16;100.00;101249.66;5002416;28;20223;-66
2023/09/25 03:13:18;;;;;;;3.50;2.87;;;;;;;7.14;100.00;101251.31;5000325;28;20214;-67
2023/09/25 03:15:44;;;;;;;4.43;2.87;;;;;;;7.12;100.00;101253.00;4998957;28;20259;-67
2023/09/25 03:18:11;;;;;;;4.57;2.50;;;;;;;7.08;100.00;101256.34;5002965;28;20205;-66
2023/09/25 03:20:38;;;;;;;4.10;2.80;;;;;;;7.10;100.00;101253.78;4999433;28;20259;-67
2023/09/25 03:23:05;;;;;;;3.60;2.70;;;;;;;7.11;100.00;101250.31;5004597;28;20282;-66
2023/09/25 03:25:35;;;;;;;4.73;2.40;;;;;;;7.08;100.00;101253.72;5004637;28;20246;-66
2023/09/25 03:28:02;;;;;;;4.40;2.90;;;;;;;7.07;100.00;101259.81;5000372;28;20235;-67
2023/09/25 03:30:29;;;;;;;3.90;2.83;;;;;;;7.07;100.00;101265.09;4994997;28;20569;-67
2023/09/25 03:32:56;;;;;;;3.87;2.80;;;;;;;7.07;100.00;101261.56;4997462;28;20212;-66
2023/09/25 03:35:22;;;;;;;4.47;3.10;;;;;;;7.09;100.00;101246.72;5000385;28;20228;-66
2023/09/25 03:37:49;;;;;;;5.53;3.00;;;;;;;7.24;100.00;101242.09;4998569;28;20287;-67
2023/09/25 03:40:16;;;;;;;4.10;3.10;;;;;;;7.21;100.00;101249.88;4999904;28;20209;-67
2023/09/25 03:42:42;;;;;;;3.80;3.00;;;;;;;7.13;100.00;101248.63;4996325;28;20602;-67
2023/09/25 03:45:09;;;;;;;4.10;3.10;;;;;;;7.12;100.00;101238.94;5005944;28;20227;-66
2023/09/25 03:47:36;;;;;;;5.07;3.03;;;;;;;7.04;100.00;101246.53;5000443;28;20204;-67
2023/09/25 03:50:03;;;;;;;3.60;2.83;;;;;;;7.19;100.00;101244.50;4997998;28;20291;-68
2023/09/25 03:52:29;;;;;;;5.53;3.00;;;;;;;7.25;100.00;101257.06;4994769;28;20834;-67
2023/09/25 03:54:56;;;;;;;4.33;3.00;;;;;;;7.17;100.00;101240.00;5001754;28;20252;-67
2023/09/25 03:57:22;;;;;;;4.10;3.03;;;;;;;7.11;100.00;101250.31;4999986;28;20215;-66
2023/09/25 03:59:50;;;;;;;6.20;3.47;;;;;;;7.10;100.00;101245.88;5001250;28;20197;-68
2023/09/25 04:02:16;;;;;;;5.77;2.90;;;;;;;7.26;100.00;101255.31;4999706;28;20226;-67
2023/09/25 04:04:43;;;;;;;4.80;3.20;;;;;;;7.34;100.00;101254.78;4997254;28;20200;-66
2023/09/25 04:07:09;;;;;;;3.87;2.93;;;;;;;7.27;100.00;101257.13;4998995;28;20204;-66
2023/09/25 04:09:38;;;;;;;4.50;3.07;;;;;;;7.19;100.00;101251.50;4999624;28;20210;-67
2023/09/25 04:12:04;;;;;;;11.10;3.20;;;;;;;7.07;100.00;101265.09;4999753;28;20214;-66
2023/09/25 04:14:35;;;;;;;4.37;3.10;;;;;;;6.89;100.00;101252.06;5009954;28;20746;-66
2023/09/25 04:17:02;;;;;;;3.47;2.90;;;;;;;6.80;100.00;101251.66;4998014;28;20297;-66
2023/09/25 04:19:29;;;;;;;4.50;2.57;;;;;;;6.70;100.00;101251.19;5003276;28;20211;-66
2023/09/25 04:21:57;;;;;;;3.90;2.93;;;;;;;6.71;100.00;101253.00;5003778;28;20228;-66
2023/09/25 04:24:23;;;;;;;5.40;3.43;;;;;;;6.75;100.00;101247.03;5001874;28;20203;-67
2023/09/25 04:26:50;;;;;;;5.37;3.33;;;;;;;6.86;100.00;101251.03;5000910;28;20226;-66
2023/09/25 04:29:17;;;;;;;4.43;3.20;;;;;;;7.00;100.00;101254.25;5017207;28;20216;-67
2023/09/25 04:31:46;;;;;;;4.70;2.90;;;;;;;7.08;100.00;101245.81;5001696;28;20214;-67
2023/09/25 04:34:13;;;;;;;5.57;2.90;;;;;;;6.99;100.00;101258.59;5001333;28;20204;-68
2023/09/25 04:36:39;;;;;;;5.10;3.53;;;;;;;7.00;100.00;101262.13;4994692;28;20727;-70
2023/09/25 04:39:10;;;;;;;4.50;3.20;;;;;;;7.00;100.00;101254.25;4999189;28;20219;-68
2023/09/25 04:41:37;;;;;;;4.47;3.23;;;;;;;6.97;100.00;101257.66;4999792;28;20207;-70
2023/09/25 04:44:04;;;;;;;4.90;3.20;;;;;;;6.82;100.00;101262.28;5002679;28;20211;-70
2023/09/25 04:46:31;;;;;;;4.27;3.07;;;;;;;6.84;100.00;101253.59;4997581;28;20220;-70
2023/09/25 04:49:00;;;;;;;4.20;3.00;;;;;;;6.85;100.00;101263.31;5003884;28;20210;-70
2023/09/25 04:51:26;;;;;;;4.87;3.50;;;;;;;6.96;100.00;101262.84;5001320;28;20211;-69
2023/09/25 04:53:53;;;;;;;4.67;2.80;;;;;;;7.08;100.00;101268.63;5000994;28;20205;-70
2023/09/25 04:56:23;;;;;;;5.17;3.50;;;;;;;6.99;100.00;101266.50;4995086;28;20604;-67
2023/09/25 04:58:49;;;;;;;5.27;2.80;;;;;;;6.97;100.00;101275.19;5012790;28;20225;-70
2023/09/25 05:01:16;;;;;;;6.13;3.10;;;;;;;6.83;100.00;101277.25;4996651;28;20754;-70
2023/09/25 05:03:43;;;;;;;4.20;3.20;;;;;;;6.76;100.00;101277.78;5000386;28;20529;-70
2023/09/25 05:06:12;;;;;;;6.43;3.40;;;;;;;6.78;100.00;101281.38;5015242;28;20731;-70
2023/09/25 05:08:39;;;;;;;6.53;3.40;;;;;;;6.89;100.00;101277.50;5010760;28;20609;-70
2023/09/25 05:11:05;;;;;;;4.67;3.13;;;;;;;6.98;100.00;101279.59;5003821;28;20306;-67
2023/09/25 05:13:34;;;;;;;5.40;3.10;;;;;;;6.96;100.00;101284.81;4993538;28;20805;-71
2023/09/25 05:16:03;;;;;;;4.67;2.80;;;;;;;7.08;100.00;101281.78;5004291;28;20255;-71
2023/09/25 05:18:30;;;;;;;6.70;3.10;;;;;;;7.04;100.00;101277.22;5002470;28;20277;-70
2023/09/25 05:20:57;;;;;;;5.00;3.50;;;;;;;7.00;100.00;101284.09;5000286;28;20580;-71
2023/09/25 05:23:24;;;;;;;5.20;3.17;;;;;;;6.99;100.00;101292.84;4993961;28;21082;-69
2023/09/25 05:25:50;;;;;;;4.97;3.40;;;;;;;6.97;100.00;101288.34;5016443;28;20707;-70
2023/09/25 05:28:17;;;;;;;5.50;3.43;;;;;;;7.00;100.00;101291.09;4996360;28;20218;-71
2023/09/25 05:30:43;;;;;;;4.47;3.47;;;;;;;7.06;100.00;101296.63;4995934;28;20208;-70
2023/09/25 05:33:10;;;;;;;4.90;3.17;;;;;;;7.14;100.00;101290.84;4994659;28;20618;-71
2023/09/25 05:35:36;;;;;;;5.30;3.70;;;;;;;7.20;100.00;101296.38;4996985;28;20228;-71
2023/09/25 05:38:03;;;;;;;5.67;3.80;;;;;;;7.25;100.00;101291.31;4998701;28;20781;-71
2023/09/25 05:40:29;;;;;;;5.83;3.53;;;;;;;7.27;100.00;101296.63;4993899;28;20590;-69
2023/09/25 05:42:55;;;;;;;5.30;3.40;;;;;;;7.24;100.00;101292.13;5012112;28;20228;-70
2023/09/25 05:45:22;;;;;;;5.40;3.57;;;;;;;7.34;100.00;101293.41;4999275;28;20326;-68
2023/09/25 05:47:48;;;;;;;6.63;3.47;;;;;;;7.35;100.00;101285.56;4991403;28;20295;-70
2023/09/25 05:50:15;;;;;;;4.30;3.57;;;;;;;7.49;100.00;101284.38;4994279;28;20209;-70
2023/09/25 05:52:41;;;;;;;6.00;4.07;;;;;;;7.55;100.00;101291.63;4996132;28;20658;-70
2023/09/25 05:55:08;;;;;;;8.27;4.43;;;;;;;7.59;100.00;101293.53;4991781;28;20690;-71
2023/09/25 05:57:35;;;;;;;5.47;3.70;;;;;;;7.76;100.00;101296.84;5004870;28;20211;-70
2023/09/25 06:00:11;;;;;;;6.67;3.60;;;;;;;7.86;100.00;101299.91;4999666;28;20204;-70
2023/09/25 06:02:41;;;;;;;6.93;3.63;;;;;;;7.88;100.00;101301.69;4993957;28;20219;-70
2023/09/25 06:05:09;;;;;;;4.80;3.30;;;;;;;7.96;100.00;101303.78;4999753;28;20584;-70
2023/09/25 06:07:36;;;;;;;5.33;3.70;;;;;;;8.07;100.00;101310.41;4992931;28;20233;-70
2023/09/25 06:10:04;;;;;;;4.03;3.23;;;;;;;8.06;100.00;101305.97;4997446;28;20239;-70
2023/09/25 06:12:31;;;;;;;9.53;4.10;;;;;;;8.06;100.00;101310.34;4991625;28;20244;-71
2023/09/25 06:14:57;;;;;;;6.40;3.87;;;;;;;8.11;100.00;101303.50;4995846;28;20623;-71
2023/09/25 06:17:26;;;;;;;6.07;3.87;;;;;;;8.12;100.00;101306.19;4995397;28;20204;-69
2023/09/25 06:19:54;;;;;;;5.50;4.07;;;;;;;8.15;100.00;101302.78;4991211;28;20288;-71
2023/09/25 06:22:21;;;;;;;8.90;4.10;;;;;;;8.23;100.00;101305.69;5006373;28;20228;-70
2023/09/25 06:24:48;;;;;;;7.30;4.17;;;;;;;8.24;100.00;101310.13;4994583;28;20201;-70
2023/09/25 06:27:15;;;;;;;7.93;3.97;;;;;;;8.29;100.00;101312.09;4998191;28;20686;-70
2023/09/25 06:29:43;;;;;;;6.27;4.10;;;;;;;8.34;100.00;101309.66;4996581;28;20197;-70
2023/09/25 06:32:11;;;;;;;9.07;4.23;;;;;;;8.41;100.00;101312.59;5009816;28;20688;-71
2023/09/25 06:34:39;;;;;;;6.83;4.20;;;;;;;8.51;100.00;101315.56;4999343;28;20685;-68
2023/09/25 06:37:05;;;;;;;5.20;3.77;;;;;;;8.61;100.00;101321.22;4988820;28;20268;-70
2023/09/25 06:39:33;;;;;;;5.33;4.00;;;;;;;8.72;100.00;101316.31;4995380;28;20597;-70
2023/09/25 06:42:00;;;;;;;7.67;4.70;;;;;;;8.80;100.00;101317.50;4994815;28;20226;-70
2023/09/25 06:44:26;;;;;;;7.57;4.73;;;;;;;8.91;100.00;101305.56;4992093;28;20410;-69
2023/09/25 06:46:55;;;;;;;8.60;4.50;;;;;;;9.00;100.00;101308.53;4992622;28;20236;-70
2023/09/25 06:49:23;;;;;;;5.93;4.33;;;;;;;9.10;100.00;101305.34;4998320;28;20203;-71
2023/09/25 06:51:49;;;;;;;9.63;5.20;;;;;;;9.20;100.00;101301.25;4990499;28;20209;-70
2023/09/25 06:54:16;;;;;;;7.50;4.50;;;;;;;9.32;100.00;101293.75;4995598;28;20197;-69
2023/09/25 06:56:42;;;;;;;8.00;4.67;;;;;;;9.43;100.00;101302.94;4987806;28;20220;-70
2023/09/25 06:59:17;;;;;;;9.10;5.20;;;;;;;9.56;100.00;101301.56;5001854;28;20479;-70
2023/09/25 07:01:44;;;;;;;6.90;4.57;;;;;;;9.69;100.00;101306.44;5012283;28;20202;-70
2023/09/25 07:04:15;;;;;;;6.13;4.53;;;;;;;9.82;100.00;101309.44;4997574;28;20219;-70
2023/09/25 07:06:44;;;;;;;6.23;4.17;;;;;;;9.93;100.00;101315.97;4992365;28;20950;-70
2023/09/25 07:09:14;;;;;;;7.80;4.67;;;;;;;10.04;100.00;101311.91;4997076;28;20226;-68
2023/09/25 07:11:41;;;;;;;7.67;4.30;;;;;;;10.17;100.00;101319.38;5001498;28;20586;-69
2023/09/25 07:14:07;;;;;;;5.90;4.03;;;;;;;10.40;100.00;101322.69;4998423;28;20203;-69
2023/09/25 07:16:35;;;;;;;6.93;3.83;;;;;;;10.58;100.00;101315.31;4998626;23;20231;-71
2023/09/25 07:19:01;;;;;;;9.10;4.00;;;;;;;10.79;100.00;101317.63;5002207;28;20207;-71
2023/09/25 07:21:28;;;;;;;6.90;3.80;;;;;;;10.99;100.00;101311.13;4993468;28;20620;-72
2023/09/25 07:23:58;;;;;;;6.23;3.77;;;;;;;11.25;100.00;101316.22;4997423;28;20279;-76
2023/09/25 07:26:24;;;;;;;7.50;4.03;;;;;;;11.44;100.00;101313.16;4998312;28;20224;-76
2023/09/25 07:28:51;;;;;;;7.73;4.10;;;;;;;11.67;100.00;101305.75;5000107;28;20207;-77
2023/09/25 07:31:26;;;;;;;8.73;4.20;;;;;;;11.93;100.00;101301.97;4989853;28;20252;-77
2023/09/25 07:33:55;;;;;;;8.37;4.20;;;;;;;12.11;100.00;101303.25;4995790;28;20214;-77
2023/09/25 07:36:22;;;;;;;5.70;3.60;;;;;;;12.28;100.00;101307.16;4993863;28;20227;-77
2023/09/25 07:38:49;;;;;;;7.37;4.20;;;;;;;12.43;100.00;101307.50;4993988;28;20634;-77
2023/09/25 07:41:16;;;;;;;7.63;3.93;;;;;;;12.57;100.00;101314.84;5000456;28;20203;-76
2023/09/25 07:43:42;;;;;;;5.60;3.43;;;;;;;12.69;100.00;101309.75;4990964;28;20299;-77
2023/09/25 07:46:25;;;;;;;8.93;3.60;;;;;;;12.83;100.00;101303.84;4997836;28;20232;-77
2023/09/25 07:48:52;;;;;;;6.40;3.30;;;;;;;12.98;100.00;101300.56;5003116;28;20261;-79
2023/09/25 07:51:19;;;;;;;5.57;3.33;;;;;;;13.15;100.00;101292.88;4995988;28;20214;-75
2023/09/25 07:53:45;;;;;;;4.93;3.10;;;;;;;13.30;100.00;101294.97;4992196;28;20220;-74
2023/09/25 07:56:12;;;;;;;6.80;3.20;;;;;;;13.49;100.00;101295.28;5003547;28;20220;-72
2023/09/25 07:58:39;;;;;;;3.70;2.53;;;;;;;13.70;100.00;101296.50;5000812;28;20683;-71
2023/09/25 08:01:08;;;;;;;5.10;2.67;;;;;;;13.93;100.00;101308.34;4998254;28;20205;-70
2023/09/25 08:03:37;;;;;;;5.03;2.53;;;;;;;14.16;100.00;101307.81;5003905;28;20700;-71
2023/09/25 08:06:05;;;;;;;4.07;2.47;;;;;;;14.31;100.00;101303.56;5018570;28;20288;-70
2023/09/25 08:08:34;;;;;;;3.53;2.43;;;;;;;14.48;100.00;101305.59;5001783;28;20523;-70
2023/09/25 08:11:01;;;;;;;4.10;2.60;;;;;;;14.67;100.00;101307.59;5000876;28;20213;-70
2023/09/25 08:13:29;;;;;;;4.73;2.60;;;;;;;14.79;100.00;101305.03;5003496;28;20613;-70
2023/09/25 08:16:03;;;;;;;4.10;2.70;;;;;;;14.91;100.00;101307.88;5004553;28;20595;-70
2023/09/25 08:18:29;;;;;;;5.17;2.67;;;;;;;15.00;100.00;101297.28;5002072;28;20213;-68
2023/09/25 08:20:56;;;;;;;6.37;2.97;;;;;;;15.17;100.00;101307.19;5005044;28;20500;-69
2023/09/25 08:23:22;;;;;;;5.10;2.77;;;;;;;15.29;100.00;101307.34;4993576;28;20328;-69
2023/09/25 08:25:48;;;;;;;3.93;2.40;;;;;;;15.39;100.00;101310.97;5003165;28;20572;-70
2023/09/25 08:28:15;;;;;;;4.80;2.60;;;;;;;15.48;100.00;101317.28;5002311;28;20216;-70
2023/09/25 08:30:41;;;;;;;5.73;2.20;;;;;;;15.55;100.00;101312.88;4996979;28;20207;-68
2023/09/25 08:33:08;;;;;;;3.30;2.10;;;;;;;15.61;100.00;101313.88;4998722;28;20223;-69
2023/09/25 08:35:34;;;;;;;3.33;2.23;;;;;;;15.72;100.00;101316.63;4999608;28;20242;-68
2023/09/25 08:38:03;;;;;;;3.20;2.30;;;;;;;15.80;100.00;101308.66;5001390;28;20222;-70
2023/09/25 08:40:31;;;;;;;8.07;2.17;;;;;;;15.85;100.00;101307.81;4997098;28;20207;-68
2023/09/25 08:42:58;;;;;;;4.23;2.40;;;;;;;15.97;100.00;101307.88;5004571;28;20577;-68
2023/09/25 08:45:44;;;;;;;4.47;2.60;;;;;;;16.00;100.00;101312.34;5002098;28;20327;-67
2023/09/25 08:48:14;;;;;;;4.50;2.53;;;;;;;16.09;100.00;101312.41;4998401;28;20211;-68
2023/09/25 08:50:41;;;;;;;7.07;2.93;;;;;;;16.14;100.00;101316.00;4993217;28;20601;-69
2023/09/25 08:53:08;;;;;;;4.47;2.47;;;;;;;16.28;99.96;101311.59;4999290;28;20646;-68
2023/09/25 08:55:34;;;;;;;5.47;2.43;;;;;;;16.32;96.85;101309.84;4995501;28;20315;-68
2023/09/25 08:58:01;;;;;;;3.87;2.20;;;;;;;16.42;98.74;101313.47;4999853;28;20204;-68
2023/09/25 09:00:32;;;;;;;4.33;2.30;;;;;;;16.53;100.00;101307.28;5004303;28;20296;-68
2023/09/25 09:02:58;;;;;;;3.03;2.30;;;;;;;16.54;94.07;101309.06;5017048;28;20212;-68
2023/09/25 09:05:25;;;;;;;4.20;2.43;;;;;;;16.57;93.10;101305.50;5012738;28;20247;-68
2023/09/25 09:08:02;;;;;;;3.77;2.40;;;;;;;16.70;95.88;101319.84;4994742;28;20689;-68
2023/09/25 09:10:33;;;;;;;4.47;2.60;;;;;;;16.71;94.83;101308.25;4996701;28;20212;-69
2023/09/25 09:13:01;;;;;;;4.17;2.30;;;;;;;16.78;94.69;101313.59;4993712;28;20215;-68
2023/09/25 09:15:30;;;;;;;3.57;2.40;;;;;;;16.95;91.17;101310.09;5000649;28;20302;-69
2023/09/25 09:17:57;;;;;;;5.67;2.40;;;;;;;17.10;91.02;101310.13;5001921;28;20207;-68
2023/09/25 09:20:38;;;;;;;6.20;2.83;;;;;;;17.16;90.47;101307.44;5000652;28;20477;-68
2023/09/25 09:23:08;;;;;;;3.30;2.50;;;;;;;17.11;89.93;101306.56;5008947;28;20203;-68
2023/09/25 09:25:35;;;;;;;4.03;2.43;;;;;;;17.17;86.86;101303.88;4999832;28;20228;-68
2023/09/25 09:28:06;;;;;;;4.70;2.20;;;;;;;17.30;87.30;101302.13;5002903;28;20385;-68
2023/09/25 09:30:32;;;;;;;4.53;2.27;;;;;;;17.45;86.24;101300.31;4998546;28;20197;-67
2023/09/25 09:33:09;;;;;;;4.37;2.50;;;;;;;17.52;85.76;101303.88;5000014;28;20208;-68
2023/09/25 09:35:36;;;;;;;2.77;2.33;;;;;;;17.47;82.23;101309.25;5000221;28;20223;-68
2023/09/25 09:38:05;;;;;;;5.47;2.53;;;;;;;17.52;81.76;101304.78;5010731;28;20208;-69
2023/09/25 09:40:32;;;;;;;4.07;2.37;;;;;;;17.49;84.14;101298.53;5003955;28;20208;-68
2023/09/25 09:42:58;;;;;;;3.00;2.00;;;;;;;17.64;84.73;101303.91;4994605;28;20580;-68
2023/09/25 09:45:27;;;;;;;3.90;2.40;;;;;;;17.61;80.45;101300.31;4998425;28;20266;-68
2023/09/25 09:47:55;;;;;;;4.07;2.47;;;;;;;17.72;82.01;101307.50;5013178;28;20302;-68
2023/09/25 09:50:26;;;;;;;4.07;2.70;;;;;;;17.72;81.19;101304.81;5006880;28;20231;-68
2023/09/25 09:52:53;;;;;;;3.93;2.70;;;;;;;17.81;82.22;101291.41;5002072;28;20239;-68
2023/09/25 09:55:21;;;;;;;4.50;2.60;;;;;;;17.94;79.75;101302.97;4997894;28;20222;-68
2023/09/25 09:57:49;;;;;;;4.47;2.60;;;;;;;18.04;77.60;101301.19;4997201;28;20203;-68
2023/09/25 10:00:17;;;;;;;5.33;2.80;;;;;;;17.97;77.00;101286.00;5020944;28;20730;-68
2023/09/25 10:02:45;;;;;;;9.77;4.80;;;;;;;17.89;76.20;101287.81;4998259;28;21427;-68
2023/09/25 10:05:13;;;;;;;3.40;2.60;;;;;;;18.12;74.88;101291.34;5000134;28;20619;-68
2023/09/25 10:08:05;;;;;;;6.13;2.60;;;;;;;18.19;75.13;101290.41;5007962;28;20201;-68
2023/09/25 10:10:43;;;;;;;4.87;2.80;;;;;;;18.45;75.69;101276.91;5000983;28;20242;-68
2023/09/25 10:13:13;;;;;;;3.80;2.13;;;;;;;18.60;74.87;101270.56;5002124;28;20209;-68
2023/09/25 10:15:49;;;;;;;2.93;2.00;;;;;;;18.80;71.46;101266.00;4992813;28;20235;-68
2023/09/25 10:18:16;;;;;;;4.37;2.50;;;;;;;18.89;70.12;101268.66;5000210;28;20676;-68
2023/09/25 10:20:45;;;;;;;4.70;2.83;;;;;;;18.82;69.17;101264.22;4995006;28;20204;-67
2023/09/25 10:23:21;;;;;;;7.10;2.70;;;;;;;18.82;68.75;101260.66;5005148;28;20204;-68
2023/09/25 10:25:50;;;;;;;4.27;2.60;;;;;;;18.91;71.32;101268.63;4994453;28;20750;-68
2023/09/25 10:28:21;;;;;;;6.35;2.20;;;;;;;19.13;69.30;101262.19;5009320;28;20242;-68
2023/09/25 10:30:49;;;;;;;4.68;2.40;;;;;;;19.33;68.22;101267.41;4995953;28;20207;-68
2023/09/25 10:33:17;;;;;;;4.15;2.22;;;;;;;19.52;68.18;101271.72;4993725;28;20235;-68
2023/09/25 10:35:49;;;;;;;2.72;1.90;;;;;;;19.66;66.61;101266.25;5005416;28;20727;-68
2023/09/25 10:38:25;;;;;;;4.60;2.90;;;;;;;19.67;65.14;101268.94;5012721;28;20209;-68
2023/09/25 10:41:02;;;;;;;4.25;2.58;;;;;;;19.84;63.40;101270.53;5002534;28;20287;-68
2023/09/25 10:43:30;;;;;;;6.18;1.92;;;;;;;19.97;64.01;101265.00;4998711;28;20216;-69
2023/09/25 10:45:57;;;;;;;3.75;2.42;;;;;;;19.83;61.71;101261.59;4994125;28;20589;-67
2023/09/25 10:48:25;;;;;;;6.38;2.00;;;;;;;19.93;63.88;101263.25;5012357;28;20208;-68
2023/09/25 10:50:52;;;;;;;2.85;2.00;;;;;;;20.02;60.61;101264.97;4990336;28;20204;-67
2023/09/25 10:53:18;;;;;;;7.55;2.30;;;;;;;20.05;59.98;101256.88;4996340;28;20200;-68
2023/09/25 10:55:47;;;;;;;2.80;1.90;;;;;;;20.24;61.35;101262.91;4997698;28;20232;-68
2023/09/25 10:58:14;;;;;;;3.55;2.00;;;;;;;20.39;59.37;101261.81;5016200;28;20279;-67
2023/09/25 11:00:42;;;;;;;3.70;1.73;;;;;;;20.41;59.25;101260.91;5003741;28;20196;-67
2023/09/25 11:03:09;;;;;;;3.20;2.15;;;;;;;20.50;58.91;101259.94;5000325;28;20220;-68
2023/09/25 11:05:38;;;;;;;3.30;2.10;;;;;;;20.48;57.59;101262.66;4994410;28;20220;-67
2023/09/25 11:08:06;;;;;;;4.15;1.92;;;;;;;20.20;55.94;101254.00;4995581;28;20703;-68
2023/09/25 11:10:35;;;;;;;4.03;2.22;;;;;;;20.13;56.68;101249.59;4994636;28;20213;-67
2023/09/25 11:13:03;;;;;;;3.05;1.95;;;;;;;20.26;57.42;101239.56;5001323;28;20227;-68
2023/09/25 11:15:35;;;;;;;3.03;2.10;;;;;;;20.42;57.85;101243.91;4998221;28;20243;-68
2023/09/25 11:18:02;;;;;;;3.50;2.03;;;;;;;20.54;58.68;101241.03;5005670;28;20205;-67
2023/09/25 11:20:32;;;;;;;3.38;2.28;;;;;;;20.78;57.44;101229.00;4995053;28;20687;-69
2023/09/25 11:23:09;;;;;;;3.55;1.90;;;;;;;20.88;56.07;101216.31;5018049;28;20211;-69
2023/09/25 11:25:48;;;;;;;2.53;2.03;;;;;;;20.91;55.74;101218.94;5011874;28;20691;-68
2023/09/25 11:28:23;;;;;;;3.53;1.85;;;;;;;20.87;55.32;101223.50;4997538;28;20200;-67